Aviation Digital Data Service (ADDS)

Output produced by METARs form (0259 UTC 25 February 2021)
found at http://www.aviationweather.gov/metar/data/
 
KLNS 250253Z 00000KT 10SM OVC090 09/00 A2982 RMK AO2 SLP101 T00890000 53009
KLNS 242338Z 2500/2524 19007KT P6SM BKN090 WS020/23045KT 
     FM250200 25010KT P6SM SCT060 WS020/23045KT 
     FM250500 29010KT P6SM SCT060 
     FM251000 31011G18KT P6SM SCT060